Terminal Aerodrome Forecast
Issued by NWS

Home | Current Version | Previous Version | Text Only | Print | Product List | Glossary On
Versions: 1 2 3 4 5 6 7 8 9 10 11 12 13 14
683
FTUS44 KTSA 272214 AAA
TAFRVS
TAF AMD
KRVS 272214Z 2722/2818 19012G19KT P6SM VCTS SCT040CB SCT110
      TEMPO 2723/2803 VRB30G50KT 1SM +TSRA BKN015CB
     FM280400 23008KT P6SM OVC050
     FM280600 34009KT P6SM OVC015=

USA.gov is the U.S. government's official web portal to all federal, state and local government web resources and services.